sensor_id;sensor_type;location;lat;lon;timestamp;temperature;humidity
7666;DHT22;3875;46.562;4.898;2024-03-23T00:55:59;15.30;82.10
7666;DHT22;3875;46.562;4.898;2024-03-23T00:58:24;15.30;81.90
7666;DHT22;3875;46.562;4.898;2024-03-23T01:00:50;15.20;81.90
7666;DHT22;3875;46.562;4.898;2024-03-23T01:03:15;15.20;81.90
7666;DHT22;3875;46.562;4.898;2024-03-23T01:05:41;15.20;81.80
7666;DHT22;3875;46.562;4.898;2024-03-23T01:08:07;15.20;81.90
7666;DHT22;3875;46.562;4.898;2024-03-23T01:10:33;15.10;81.80
7666;DHT22;3875;46.562;4.898;2024-03-23T01:12:58;15.10;81.70
7666;DHT22;3875;46.562;4.898;2024-03-23T01:15:24;15.10;81.60
7666;DHT22;3875;46.562;4.898;2024-03-23T01:17:50;15.10;81.50
7666;DHT22;3875;46.562;4.898;2024-03-23T01:20:15;15.10;81.50
7666;DHT22;3875;46.562;4.898;2024-03-23T01:22:42;15.10;81.50
7666;DHT22;3875;46.562;4.898;2024-03-23T01:25:08;15.10;81.50
7666;DHT22;3875;46.562;4.898;2024-03-23T01:27:34;15.10;81.60
7666;DHT22;3875;46.562;4.898;2024-03-23T01:29:59;15.10;81.70
7666;DHT22;3875;46.562;4.898;2024-03-23T01:32:25;15.10;81.60
7666;DHT22;3875;46.562;4.898;2024-03-23T01:34:51;15.20;81.60
7666;DHT22;3875;46.562;4.898;2024-03-23T01:37:16;15.20;81.60
7666;DHT22;3875;46.562;4.898;2024-03-23T01:39:42;15.20;81.70
7666;DHT22;3875;46.562;4.898;2024-03-23T01:42:08;15.20;81.60
7666;DHT22;3875;46.562;4.898;2024-03-23T01:44:33;15.20;81.50
7666;DHT22;3875;46.562;4.898;2024-03-23T01:46:59;15.20;81.50
7666;DHT22;3875;46.562;4.898;2024-03-23T01:49:25;15.10;81.40
7666;DHT22;3875;46.562;4.898;2024-03-23T01:51:51;15.10;81.50
7666;DHT22;3875;46.562;4.898;2024-03-23T01:54:16;15.10;81.70
7666;DHT22;3875;46.562;4.898;2024-03-23T01:56:42;15.00;81.80
7666;DHT22;3875;46.562;4.898;2024-03-23T01:59:08;15.00;81.90
7666;DHT22;3875;46.562;4.898;2024-03-23T02:01:37;14.90;82.00
7666;DHT22;3875;46.562;4.898;2024-03-23T02:04:03;14.90;82.20
7666;DHT22;3875;46.562;4.898;2024-03-23T02:06:29;14.90;82.20
7666;DHT22;3875;46.562;4.898;2024-03-23T02:08:55;14.90;82.40
7666;DHT22;3875;46.562;4.898;2024-03-23T02:11:20;14.80;82.40
7666;DHT22;3875;46.562;4.898;2024-03-23T02:13:46;14.80;82.40
7666;DHT22;3875;46.562;4.898;2024-03-23T02:16:12;14.80;82.60
7666;DHT22;3875;46.562;4.898;2024-03-23T02:18:38;14.80;82.70
7666;DHT22;3875;46.562;4.898;2024-03-23T02:21:04;14.80;82.60
7666;DHT22;3875;46.562;4.898;2024-03-23T02:23:30;14.80;82.60
7666;DHT22;3875;46.562;4.898;2024-03-23T02:25:56;14.80;81.90
7666;DHT22;3875;46.562;4.898;2024-03-23T02:28:21;14.80;81.80
7666;DHT22;3875;46.562;4.898;2024-03-23T02:30:51;14.70;81.40
7666;DHT22;3875;46.562;4.898;2024-03-23T02:33:17;14.70;81.30
7666;DHT22;3875;46.562;4.898;2024-03-23T02:35:46;14.70;81.60
7666;DHT22;3875;46.562;4.898;2024-03-23T02:38:12;14.70;81.70
7666;DHT22;3875;46.562;4.898;2024-03-23T02:40:38;14.70;81.50
7666;DHT22;3875;46.562;4.898;2024-03-23T02:43:04;14.60;81.10
7666;DHT22;3875;46.562;4.898;2024-03-23T02:45:30;14.60;81.30
7666;DHT22;3875;46.562;4.898;2024-03-23T02:47:55;14.50;81.10
7666;DHT22;3875;46.562;4.898;2024-03-23T02:50:22;14.50;81.20
7666;DHT22;3875;46.562;4.898;2024-03-23T02:52:48;14.50;81.70
7666;DHT22;3875;46.562;4.898;2024-03-23T02:55:14;14.40;81.70
7666;DHT22;3875;46.562;4.898;2024-03-23T02:57:40;14.30;82.00
7666;DHT22;3875;46.562;4.898;2024-03-23T03:00:07;14.30;82.00
7666;DHT22;3875;46.562;4.898;2024-03-23T03:02:33;14.30;81.70
7666;DHT22;3875;46.562;4.898;2024-03-23T03:04:59;14.20;81.40
7666;DHT22;3875;46.562;4.898;2024-03-23T03:07:25;14.10;81.30
7666;DHT22;3875;46.562;4.898;2024-03-23T03:09:51;14.00;81.60
7666;DHT22;3875;46.562;4.898;2024-03-23T03:12:16;14.00;81.70
7666;DHT22;3875;46.562;4.898;2024-03-23T03:14:42;13.90;81.90
7666;DHT22;3875;46.562;4.898;2024-03-23T03:17:08;13.80;82.30
7666;DHT22;3875;46.562;4.898;2024-03-23T03:19:34;13.70;82.70
7666;DHT22;3875;46.562;4.898;2024-03-23T03:21:59;13.60;83.00
7666;DHT22;3875;46.562;4.898;2024-03-23T03:24:25;13.50;83.40
7666;DHT22;3875;46.562;4.898;2024-03-23T03:26:51;13.40;83.80
7666;DHT22;3875;46.562;4.898;2024-03-23T03:29:17;13.30;84.30
7666;DHT22;3875;46.562;4.898;2024-03-23T03:31:43;13.30;84.60
7666;DHT22;3875;46.562;4.898;2024-03-23T03:34:09;13.30;84.90
7666;DHT22;3875;46.562;4.898;2024-03-23T03:36:35;13.20;85.00
7666;DHT22;3875;46.562;4.898;2024-03-23T03:39:00;13.20;85.10
7666;DHT22;3875;46.562;4.898;2024-03-23T03:41:28;13.20;85.30
7666;DHT22;3875;46.562;4.898;2024-03-23T03:43:54;13.10;85.70
7666;DHT22;3875;46.562;4.898;2024-03-23T03:46:20;13.10;86.20
7666;DHT22;3875;46.562;4.898;2024-03-23T03:48:46;13.00;86.00
7666;DHT22;3875;46.562;4.898;2024-03-23T03:51:14;13.00;86.10
7666;DHT22;3875;46.562;4.898;2024-03-23T03:53:39;12.90;85.60
7666;DHT22;3875;46.562;4.898;2024-03-23T03:56:05;12.90;85.20
7666;DHT22;3875;46.562;4.898;2024-03-23T03:58:32;12.90;85.60
7666;DHT22;3875;46.562;4.898;2024-03-23T04:00:57;12.80;85.60
7666;DHT22;3875;46.562;4.898;2024-03-23T04:03:23;12.90;85.70
7666;DHT22;3875;46.562;4.898;2024-03-23T04:05:55;12.80;85.80
7666;DHT22;3875;46.562;4.898;2024-03-23T04:08:21;12.80;85.90
7666;DHT22;3875;46.562;4.898;2024-03-23T04:10:47;12.90;86.00
7666;DHT22;3875;46.562;4.898;2024-03-23T04:13:13;12.90;86.20
7666;DHT22;3875;46.562;4.898;2024-03-23T04:15:39;12.90;86.30
7666;DHT22;3875;46.562;4.898;2024-03-23T04:18:05;12.80;86.40
7666;DHT22;3875;46.562;4.898;2024-03-23T04:20:30;12.80;86.60
7666;DHT22;3875;46.562;4.898;2024-03-23T04:23:00;12.80;86.60
7666;DHT22;3875;46.562;4.898;2024-03-23T04:25:26;12.80;86.70
7666;DHT22;3875;46.562;4.898;2024-03-23T04:27:51;12.80;86.70
7666;DHT22;3875;46.562;4.898;2024-03-23T04:30:17;12.80;86.90
7666;DHT22;3875;46.562;4.898;2024-03-23T04:32:43;12.80;86.90
7666;DHT22;3875;46.562;4.898;2024-03-23T04:35:09;12.80;87.20
7666;DHT22;3875;46.562;4.898;2024-03-23T04:37:35;12.70;87.30
7666;DHT22;3875;46.562;4.898;2024-03-23T04:40:02;12.70;87.30
7666;DHT22;3875;46.562;4.898;2024-03-23T04:42:31;12.70;87.50
7666;DHT22;3875;46.562;4.898;2024-03-23T04:44:57;12.70;87.50
7666;DHT22;3875;46.562;4.898;2024-03-23T04:47:23;12.70;87.80
7666;DHT22;3875;46.562;4.898;2024-03-23T04:49:48;12.70;88.00
7666;DHT22;3875;46.562;4.898;2024-03-23T04:52:15;12.70;88.50
7666;DHT22;3875;46.562;4.898;2024-03-23T04:54:41;12.60;89.50
7666;DHT22;3875;46.562;4.898;2024-03-23T04:57:07;12.50;91.10
7666;DHT22;3875;46.562;4.898;2024-03-23T04:59:35;12.30;92.30
7666;DHT22;3875;46.562;4.898;2024-03-23T05:02:01;12.10;92.80
7666;DHT22;3875;46.562;4.898;2024-03-23T05:04:28;12.00;92.70
7666;DHT22;3875;46.562;4.898;2024-03-23T05:06:54;11.80;92.70
7666;DHT22;3875;46.562;4.898;2024-03-23T05:09:22;11.70;93.00
7666;DHT22;3875;46.562;4.898;2024-03-23T05:11:49;11.60;93.20
7666;DHT22;3875;46.562;4.898;2024-03-23T05:14:15;11.50;92.80
7666;DHT22;3875;46.562;4.898;2024-03-23T05:16:40;11.50;93.20
7666;DHT22;3875;46.562;4.898;2024-03-23T05:19:06;11.40;93.00
7666;DHT22;3875;46.562;4.898;2024-03-23T05:21:32;11.30;93.20
7666;DHT22;3875;46.562;4.898;2024-03-23T05:23:58;11.30;93.10
7666;DHT22;3875;46.562;4.898;2024-03-23T05:26:23;11.30;93.10
7666;DHT22;3875;46.562;4.898;2024-03-23T05:28:49;11.30;92.90
7666;DHT22;3875;46.562;4.898;2024-03-23T05:31:28;11.30;92.70
7666;DHT22;3875;46.562;4.898;2024-03-23T05:33:54;11.20;92.40
7666;DHT22;3875;46.562;4.898;2024-03-23T05:36:20;11.20;92.30
7666;DHT22;3875;46.562;4.898;2024-03-23T05:38:46;11.20;92.30
7666;DHT22;3875;46.562;4.898;2024-03-23T05:41:12;11.20;92.10
7666;DHT22;3875;46.562;4.898;2024-03-23T05:43:40;11.10;91.70
7666;DHT22;3875;46.562;4.898;2024-03-23T05:46:06;11.10;91.70
7666;DHT22;3875;46.562;4.898;2024-03-23T05:48:33;11.00;92.00
7666;DHT22;3875;46.562;4.898;2024-03-23T05:50:59;11.00;92.20
7666;DHT22;3875;46.562;4.898;2024-03-23T05:53:25;11.00;92.10
7666;DHT22;3875;46.562;4.898;2024-03-23T05:55:51;10.90;92.00
7666;DHT22;3875;46.562;4.898;2024-03-23T05:58:19;10.90;91.70
7666;DHT22;3875;46.562;4.898;2024-03-23T06:00:45;10.90;91.10
7666;DHT22;3875;46.562;4.898;2024-03-23T06:03:11;10.90;91.00
7666;DHT22;3875;46.562;4.898;2024-03-23T06:05:37;10.90;91.10
7666;DHT22;3875;46.562;4.898;2024-03-23T06:08:04;10.90;90.60
7666;DHT22;3875;46.562;4.898;2024-03-23T06:10:30;10.90;90.30
7666;DHT22;3875;46.562;4.898;2024-03-23T06:12:57;10.70;90.60
7666;DHT22;3875;46.562;4.898;2024-03-23T06:15:24;10.70;90.30
7666;DHT22;3875;46.562;4.898;2024-03-23T06:17:49;10.60;90.20
7666;DHT22;3875;46.562;4.898;2024-03-23T06:20:15;10.50;89.90
7666;DHT22;3875;46.562;4.898;2024-03-23T06:22:41;10.40;88.80
7666;DHT22;3875;46.562;4.898;2024-03-23T06:25:07;10.40;88.40
7666;DHT22;3875;46.562;4.898;2024-03-23T06:27:33;10.30;88.00
7666;DHT22;3875;46.562;4.898;2024-03-23T06:29:59;10.30;87.60
7666;DHT22;3875;46.562;4.898;2024-03-23T06:32:25;10.20;87.70
7666;DHT22;3875;46.562;4.898;2024-03-23T06:34:51;10.10;86.90
7666;DHT22;3875;46.562;4.898;2024-03-23T06:37:17;10.00;85.90
7666;DHT22;3875;46.562;4.898;2024-03-23T06:39:43;10.00;84.20
7666;DHT22;3875;46.562;4.898;2024-03-23T06:42:08;9.90;82.70
7666;DHT22;3875;46.562;4.898;2024-03-23T06:44:34;9.90;82.80
7666;DHT22;3875;46.562;4.898;2024-03-23T06:47:00;9.70;81.90
7666;DHT22;3875;46.562;4.898;2024-03-23T06:49:25;9.60;82.50
7666;DHT22;3875;46.562;4.898;2024-03-23T06:51:51;9.60;82.20
7666;DHT22;3875;46.562;4.898;2024-03-23T06:54:18;9.50;82.70
7666;DHT22;3875;46.562;4.898;2024-03-23T06:56:44;9.50;83.10
7666;DHT22;3875;46.562;4.898;2024-03-23T06:59:10;9.40;83.20
7666;DHT22;3875;46.562;4.898;2024-03-23T07:01:36;9.40;83.70
7666;DHT22;3875;46.562;4.898;2024-03-23T07:04:02;9.50;83.80
7666;DHT22;3875;46.562;4.898;2024-03-23T07:06:32;9.70;82.50
7666;DHT22;3875;46.562;4.898;2024-03-23T07:08:58;9.90;81.50
7666;DHT22;3875;46.562;4.898;2024-03-23T07:11:24;10.00;80.70
7666;DHT22;3875;46.562;4.898;2024-03-23T07:13:51;10.10;81.20
7666;DHT22;3875;46.562;4.898;2024-03-23T07:16:17;10.20;81.50
7666;DHT22;3875;46.562;4.898;2024-03-23T07:18:43;10.40;81.50
7666;DHT22;3875;46.562;4.898;2024-03-23T07:21:09;10.50;81.40
7666;DHT22;3875;46.562;4.898;2024-03-23T07:23:34;10.50;80.30
7666;DHT22;3875;46.562;4.898;2024-03-23T07:26:02;10.30;79.80
7666;DHT22;3875;46.562;4.898;2024-03-23T07:28:28;10.20;80.20
7666;DHT22;3875;46.562;4.898;2024-03-23T07:31:13;10.10;80.70
7666;DHT22;3875;46.562;4.898;2024-03-23T07:33:43;9.80;81.10
7666;DHT22;3875;46.562;4.898;2024-03-23T07:36:09;9.60;82.10
7666;DHT22;3875;46.562;4.898;2024-03-23T07:38:35;9.60;82.70
7666;DHT22;3875;46.562;4.898;2024-03-23T07:41:09;9.70;82.70
7666;DHT22;3875;46.562;4.898;2024-03-23T07:43:38;10.00;81.70
7666;DHT22;3875;46.562;4.898;2024-03-23T07:46:05;10.10;82.40
7666;DHT22;3875;46.562;4.898;2024-03-23T07:48:30;10.20;82.00
7666;DHT22;3875;46.562;4.898;2024-03-23T07:51:07;10.10;81.90
7666;DHT22;3875;46.562;4.898;2024-03-23T07:53:34;10.10;81.80
7666;DHT22;3875;46.562;4.898;2024-03-23T07:56:05;10.20;81.40
7666;DHT22;3875;46.562;4.898;2024-03-23T07:58:31;10.40;81.30
7666;DHT22;3875;46.562;4.898;2024-03-23T08:01:07;10.60;80.40
7666;DHT22;3875;46.562;4.898;2024-03-23T08:03:40;10.40;79.60
7666;DHT22;3875;46.562;4.898;2024-03-23T08:06:13;10.30;79.60
7666;DHT22;3875;46.562;4.898;2024-03-23T08:08:40;10.40;80.10
7666;DHT22;3875;46.562;4.898;2024-03-23T08:11:07;10.60;80.30
7666;DHT22;3875;46.562;4.898;2024-03-23T08:13:33;10.80;79.60
7666;DHT22;3875;46.562;4.898;2024-03-23T08:16:00;10.90;78.90
7666;DHT22;3875;46.562;4.898;2024-03-23T08:18:26;10.70;77.70
7666;DHT22;3875;46.562;4.898;2024-03-23T08:23:28;10.70;78.10
7666;DHT22;3875;46.562;4.898;2024-03-23T08:26:03;10.70;78.30
7666;DHT22;3875;46.562;4.898;2024-03-23T08:28:29;10.80;78.90
7666;DHT22;3875;46.562;4.898;2024-03-23T08:30:56;10.90;77.20
7666;DHT22;3875;46.562;4.898;2024-03-23T08:33:22;10.80;77.30
7666;DHT22;3875;46.562;4.898;2024-03-23T08:35:57;10.80;76.80
7666;DHT22;3875;46.562;4.898;2024-03-23T08:38:24;10.90;76.90
7666;DHT22;3875;46.562;4.898;2024-03-23T08:41:00;10.80;76.10
7666;DHT22;3875;46.562;4.898;2024-03-23T08:43:27;10.80;77.10
7666;DHT22;3875;46.562;4.898;2024-03-23T08:45:54;10.90;75.00
7666;DHT22;3875;46.562;4.898;2024-03-23T08:48:20;11.00;75.00
7666;DHT22;3875;46.562;4.898;2024-03-23T08:50:46;11.10;75.80
7666;DHT22;3875;46.562;4.898;2024-03-23T08:53:12;11.40;76.10
7666;DHT22;3875;46.562;4.898;2024-03-23T08:55:38;11.70;73.20
7666;DHT22;3875;46.562;4.898;2024-03-23T08:58:04;11.80;72.00
7666;DHT22;3875;46.562;4.898;2024-03-23T09:00:30;11.70;71.80
7666;DHT22;3875;46.562;4.898;2024-03-23T09:02:57;11.70;72.10
7666;DHT22;3875;46.562;4.898;2024-03-23T09:05:22;11.80;72.30
7666;DHT22;3875;46.562;4.898;2024-03-23T09:07:49;12.00;73.70
7666;DHT22;3875;46.562;4.898;2024-03-23T09:10:15;12.10;72.70
7666;DHT22;3875;46.562;4.898;2024-03-23T09:12:41;12.30;71.50
7666;DHT22;3875;46.562;4.898;2024-03-23T09:15:07;12.50;71.20
7666;DHT22;3875;46.562;4.898;2024-03-23T09:17:33;12.80;71.80
7666;DHT22;3875;46.562;4.898;2024-03-23T09:19:58;13.10;70.00
7666;DHT22;3875;46.562;4.898;2024-03-23T09:22:24;12.90;68.10
7666;DHT22;3875;46.562;4.898;2024-03-23T09:24:50;12.80;68.00
7666;DHT22;3875;46.562;4.898;2024-03-23T09:27:15;12.80;68.90
7666;DHT22;3875;46.562;4.898;2024-03-23T09:29:50;12.90;67.20
7666;DHT22;3875;46.562;4.898;2024-03-23T09:32:16;12.80;68.60
7666;DHT22;3875;46.562;4.898;2024-03-23T09:34:42;13.10;69.30
7666;DHT22;3875;46.562;4.898;2024-03-23T09:37:07;12.80;67.80
7666;DHT22;3875;46.562;4.898;2024-03-23T09:39:35;12.90;68.70
7666;DHT22;3875;46.562;4.898;2024-03-23T09:42:04;13.00;68.40
7666;DHT22;3875;46.562;4.898;2024-03-23T09:44:35;13.10;65.20
7666;DHT22;3875;46.562;4.898;2024-03-23T09:47:04;13.00;65.40
7666;DHT22;3875;46.562;4.898;2024-03-23T09:49:30;13.00;64.80
7666;DHT22;3875;46.562;4.898;2024-03-23T09:51:56;12.70;64.60
7666;DHT22;3875;46.562;4.898;2024-03-23T09:54:22;12.80;67.70
7666;DHT22;3875;46.562;4.898;2024-03-23T09:56:47;12.90;67.00
7666;DHT22;3875;46.562;4.898;2024-03-23T09:59:13;13.00;68.00
7666;DHT22;3875;46.562;4.898;2024-03-23T10:01:39;13.40;67.90
7666;DHT22;3875;46.562;4.898;2024-03-23T10:04:05;13.70;65.20
7666;DHT22;3875;46.562;4.898;2024-03-23T10:06:33;13.90;59.70
7666;DHT22;3875;46.562;4.898;2024-03-23T10:08:59;13.50;60.80
7666;DHT22;3875;46.562;4.898;2024-03-23T10:11:25;13.60;61.70
7666;DHT22;3875;46.562;4.898;2024-03-23T10:13:52;13.90;61.50
7666;DHT22;3875;46.562;4.898;2024-03-23T10:16:24;13.90;62.50
7666;DHT22;3875;46.562;4.898;2024-03-23T10:18:50;13.30;61.80
7666;DHT22;3875;46.562;4.898;2024-03-23T10:21:16;13.40;62.80
7666;DHT22;3875;46.562;4.898;2024-03-23T10:23:43;13.70;63.60
7666;DHT22;3875;46.562;4.898;2024-03-23T10:26:19;13.90;61.50
7666;DHT22;3875;46.562;4.898;2024-03-23T10:28:58;14.00;61.30
7666;DHT22;3875;46.562;4.898;2024-03-23T10:31:29;14.20;60.60
7666;DHT22;3875;46.562;4.898;2024-03-23T10:33:55;14.10;60.60
7666;DHT22;3875;46.562;4.898;2024-03-23T10:36:22;14.30;61.80
7666;DHT22;3875;46.562;4.898;2024-03-23T10:38:50;14.30;61.30
7666;DHT22;3875;46.562;4.898;2024-03-23T10:41:16;14.40;61.60
7666;DHT22;3875;46.562;4.898;2024-03-23T10:43:44;14.20;59.60
7666;DHT22;3875;46.562;4.898;2024-03-23T10:46:10;14.20;62.20
7666;DHT22;3875;46.562;4.898;2024-03-23T10:48:36;14.70;61.70
7666;DHT22;3875;46.562;4.898;2024-03-23T10:51:02;15.00;61.40
7666;DHT22;3875;46.562;4.898;2024-03-23T10:53:28;15.20;61.40
7666;DHT22;3875;46.562;4.898;2024-03-23T10:55:55;15.10;59.90
7666;DHT22;3875;46.562;4.898;2024-03-23T10:58:40;14.90;59.60
7666;DHT22;3875;46.562;4.898;2024-03-23T11:01:06;14.80;61.00
7666;DHT22;3875;46.562;4.898;2024-03-23T11:03:33;14.60;60.50
7666;DHT22;3875;46.562;4.898;2024-03-23T11:06:00;14.50;59.90
7666;DHT22;3875;46.562;4.898;2024-03-23T11:08:40;14.50;61.30
7666;DHT22;3875;46.562;4.898;2024-03-23T11:11:21;14.70;61.80
7666;DHT22;3875;46.562;4.898;2024-03-23T11:13:51;14.50;59.20
7666;DHT22;3875;46.562;4.898;2024-03-23T11:18:49;14.10;63.40
7666;DHT22;3875;46.562;4.898;2024-03-23T11:21:52;14.60;62.80
7666;DHT22;3875;46.562;4.898;2024-03-23T11:24:20;15.10;60.30
7666;DHT22;3875;46.562;4.898;2024-03-23T11:26:46;14.90;60.30
7666;DHT22;3875;46.562;4.898;2024-03-23T11:29:15;14.60;61.20
7666;DHT22;3875;46.562;4.898;2024-03-23T11:31:52;14.00;61.50
7666;DHT22;3875;46.562;4.898;2024-03-23T11:34:19;13.70;61.40
7666;DHT22;3875;46.562;4.898;2024-03-23T11:36:45;13.10;62.30
7666;DHT22;3875;46.562;4.898;2024-03-23T11:39:15;13.20;63.40
7666;DHT22;3875;46.562;4.898;2024-03-23T11:41:52;13.30;63.80
7666;DHT22;3875;46.562;4.898;2024-03-23T11:44:19;13.70;64.00
7666;DHT22;3875;46.562;4.898;2024-03-23T11:46:48;14.50;64.70
7666;DHT22;3875;46.562;4.898;2024-03-23T11:49:33;15.00;61.30
7666;DHT22;3875;46.562;4.898;2024-03-23T11:51:58;15.30;60.30
7666;DHT22;3875;46.562;4.898;2024-03-23T11:54:26;15.10;59.50
7666;DHT22;3875;46.562;4.898;2024-03-23T11:56:59;14.60;59.70
7666;DHT22;3875;46.562;4.898;2024-03-23T11:59:39;14.50;59.00
7666;DHT22;3875;46.562;4.898;2024-03-23T12:02:10;13.50;60.40
7666;DHT22;3875;46.562;4.898;2024-03-23T12:04:37;13.10;61.70
7666;DHT22;3875;46.562;4.898;2024-03-23T12:07:17;12.80;62.70
7666;DHT22;3875;46.562;4.898;2024-03-23T12:10:07;12.80;63.70
7666;DHT22;3875;46.562;4.898;2024-03-23T12:12:33;12.80;64.00
7666;DHT22;3875;46.562;4.898;2024-03-23T12:15:06;12.70;64.40
7666;DHT22;3875;46.562;4.898;2024-03-23T12:17:33;12.70;64.10
7666;DHT22;3875;46.562;4.898;2024-03-23T12:20:00;12.70;64.80
7666;DHT22;3875;46.562;4.898;2024-03-23T12:22:26;12.80;66.00
7666;DHT22;3875;46.562;4.898;2024-03-23T12:24:52;12.90;65.40
7666;DHT22;3875;46.562;4.898;2024-03-23T12:27:18;13.10;65.60
7666;DHT22;3875;46.562;4.898;2024-03-23T12:29:44;13.80;65.70
7666;DHT22;3875;46.562;4.898;2024-03-23T12:32:13;14.50;64.20
7666;DHT22;3875;46.562;4.898;2024-03-23T12:34:39;14.80;63.50
7666;DHT22;3875;46.562;4.898;2024-03-23T12:37:04;14.80;62.10
7666;DHT22;3875;46.562;4.898;2024-03-23T12:39:35;14.50;62.80
7666;DHT22;3875;46.562;4.898;2024-03-23T12:42:01;14.50;63.10
7666;DHT22;3875;46.562;4.898;2024-03-23T12:44:28;14.40;63.30
7666;DHT22;3875;46.562;4.898;2024-03-23T12:46:54;14.40;63.40
7666;DHT22;3875;46.562;4.898;2024-03-23T12:49:20;14.00;61.60
7666;DHT22;3875;46.562;4.898;2024-03-23T12:51:56;14.00;62.90
7666;DHT22;3875;46.562;4.898;2024-03-23T12:54:22;14.10;63.40
7666;DHT22;3875;46.562;4.898;2024-03-23T12:56:48;14.10;62.70
7666;DHT22;3875;46.562;4.898;2024-03-23T12:59:14;14.00;62.90
7666;DHT22;3875;46.562;4.898;2024-03-23T13:01:40;13.90;62.70
7666;DHT22;3875;46.562;4.898;2024-03-23T13:04:06;13.70;63.00
7666;DHT22;3875;46.562;4.898;2024-03-23T13:06:34;13.40;63.50
7666;DHT22;3875;46.562;4.898;2024-03-23T13:09:06;12.90;64.70
7666;DHT22;3875;46.562;4.898;2024-03-23T13:11:37;12.70;66.90
7666;DHT22;3875;46.562;4.898;2024-03-23T13:14:22;12.60;68.30
7666;DHT22;3875;46.562;4.898;2024-03-23T13:16:50;12.50;68.30
7666;DHT22;3875;46.562;4.898;2024-03-23T13:19:18;11.80;69.80
7666;DHT22;3875;46.562;4.898;2024-03-23T13:21:47;11.30;71.80
7666;DHT22;3875;46.562;4.898;2024-03-23T13:24:14;11.10;73.00
7666;DHT22;3875;46.562;4.898;2024-03-23T13:26:39;11.30;72.20
7666;DHT22;3875;46.562;4.898;2024-03-23T13:29:05;11.90;70.80
7666;DHT22;3875;46.562;4.898;2024-03-23T13:31:31;12.40;70.40
7666;DHT22;3875;46.562;4.898;2024-03-23T13:33:57;13.00;69.20
7666;DHT22;3875;46.562;4.898;2024-03-23T13:36:22;13.70;68.80
7666;DHT22;3875;46.562;4.898;2024-03-23T13:38:48;14.00;65.80
7666;DHT22;3875;46.562;4.898;2024-03-23T13:41:14;14.00;64.80
7666;DHT22;3875;46.562;4.898;2024-03-23T13:43:39;14.00;65.00
7666;DHT22;3875;46.562;4.898;2024-03-23T13:46:06;14.20;66.10
7666;DHT22;3875;46.562;4.898;2024-03-23T13:48:31;14.70;64.80
7666;DHT22;3875;46.562;4.898;2024-03-23T13:51:01;14.80;64.70
7666;DHT22;3875;46.562;4.898;2024-03-23T13:53:27;14.80;64.90
7666;DHT22;3875;46.562;4.898;2024-03-23T13:55:53;14.90;64.90
7666;DHT22;3875;46.562;4.898;2024-03-23T13:58:19;14.70;65.70
7666;DHT22;3875;46.562;4.898;2024-03-23T14:00:48;15.00;65.50
7666;DHT22;3875;46.562;4.898;2024-03-23T14:03:14;14.90;65.40
7666;DHT22;3875;46.562;4.898;2024-03-23T14:05:41;14.70;64.60
7666;DHT22;3875;46.562;4.898;2024-03-23T14:08:07;14.70;64.60
7666;DHT22;3875;46.562;4.898;2024-03-23T14:10:33;14.40;65.50
7666;DHT22;3875;46.562;4.898;2024-03-23T14:12:59;14.10;66.00
7666;DHT22;3875;46.562;4.898;2024-03-23T14:15:28;14.90;66.90
7666;DHT22;3875;46.562;4.898;2024-03-23T14:17:55;15.30;65.30
7666;DHT22;3875;46.562;4.898;2024-03-23T14:20:22;15.10;64.10
7666;DHT22;3875;46.562;4.898;2024-03-23T14:22:51;14.70;64.00
7666;DHT22;3875;46.562;4.898;2024-03-23T14:25:17;14.50;65.80
7666;DHT22;3875;46.562;4.898;2024-03-23T14:27:46;14.30;64.80
7666;DHT22;3875;46.562;4.898;2024-03-23T14:30:12;14.20;65.80
7666;DHT22;3875;46.562;4.898;2024-03-23T14:32:39;14.20;65.80
7666;DHT22;3875;46.562;4.898;2024-03-23T14:35:05;14.40;65.40
7666;DHT22;3875;46.562;4.898;2024-03-23T14:37:37;14.60;64.90
7666;DHT22;3875;46.562;4.898;2024-03-23T14:40:04;14.50;63.70
7666;DHT22;3875;46.562;4.898;2024-03-23T14:42:30;14.30;62.20
7666;DHT22;3875;46.562;4.898;2024-03-23T14:44:56;14.00;62.40
7666;DHT22;3875;46.562;4.898;2024-03-23T14:47:22;13.90;64.20
7666;DHT22;3875;46.562;4.898;2024-03-23T14:49:48;13.90;64.40
7666;DHT22;3875;46.562;4.898;2024-03-23T14:52:16;14.20;65.00
7666;DHT22;3875;46.562;4.898;2024-03-23T14:54:42;14.40;62.90
7666;DHT22;3875;46.562;4.898;2024-03-23T14:57:09;14.10;62.80
7666;DHT22;3875;46.562;4.898;2024-03-23T14:59:35;13.60;62.00
7666;DHT22;3875;46.562;4.898;2024-03-23T15:02:07;13.30;63.60
7666;DHT22;3875;46.562;4.898;2024-03-23T15:04:33;13.20;64.00
7666;DHT22;3875;46.562;4.898;2024-03-23T15:06:59;13.10;62.80
7666;DHT22;3875;46.562;4.898;2024-03-23T15:09:24;13.20;63.60
7666;DHT22;3875;46.562;4.898;2024-03-23T15:11:51;13.20;62.80
7666;DHT22;3875;46.562;4.898;2024-03-23T15:14:17;13.20;62.40
7666;DHT22;3875;46.562;4.898;2024-03-23T15:16:42;13.10;62.00
7666;DHT22;3875;46.562;4.898;2024-03-23T15:19:11;13.10;62.10
7666;DHT22;3875;46.562;4.898;2024-03-23T15:21:36;13.40;61.80
7666;DHT22;3875;46.562;4.898;2024-03-23T15:24:02;13.60;62.70
7666;DHT22;3875;46.562;4.898;2024-03-23T15:26:28;13.80;61.30
7666;DHT22;3875;46.562;4.898;2024-03-23T15:28:54;13.70;62.10
7666;DHT22;3875;46.562;4.898;2024-03-23T15:31:23;13.50;62.60
7666;DHT22;3875;46.562;4.898;2024-03-23T15:33:48;13.40;62.40
7666;DHT22;3875;46.562;4.898;2024-03-23T15:36:14;13.30;63.50
7666;DHT22;3875;46.562;4.898;2024-03-23T15:38:40;13.50;63.10
7666;DHT22;3875;46.562;4.898;2024-03-23T15:41:06;14.00;63.50
7666;DHT22;3875;46.562;4.898;2024-03-23T15:43:32;14.20;61.50
7666;DHT22;3875;46.562;4.898;2024-03-23T15:45:59;14.30;62.00
7666;DHT22;3875;46.562;4.898;2024-03-23T15:48:26;14.40;61.10
7666;DHT22;3875;46.562;4.898;2024-03-23T15:51:10;14.40;61.70
7666;DHT22;3875;46.562;4.898;2024-03-23T15:53:36;14.50;62.10
7666;DHT22;3875;46.562;4.898;2024-03-23T15:56:03;14.40;62.00
7666;DHT22;3875;46.562;4.898;2024-03-23T15:58:30;14.00;62.00
7666;DHT22;3875;46.562;4.898;2024-03-23T16:01:01;13.50;62.80
7666;DHT22;3875;46.562;4.898;2024-03-23T16:03:27;13.20;63.10
7666;DHT22;3875;46.562;4.898;2024-03-23T16:06:19;13.00;64.30
7666;DHT22;3875;46.562;4.898;2024-03-23T16:08:45;13.30;64.00
7666;DHT22;3875;46.562;4.898;2024-03-23T16:11:10;13.60;64.30
7666;DHT22;3875;46.562;4.898;2024-03-23T16:13:36;16.30;59.80
7666;DHT22;3875;46.562;4.898;2024-03-23T16:16:03;17.50;57.20
7666;DHT22;3875;46.562;4.898;2024-03-23T16:18:36;18.40;55.80
7666;DHT22;3875;46.562;4.898;2024-03-23T16:21:04;19.30;53.80
7666;DHT22;3875;46.562;4.898;2024-03-23T16:23:32;19.80;52.80
7666;DHT22;3875;46.562;4.898;2024-03-23T16:25:58;20.10;51.70
7666;DHT22;3875;46.562;4.898;2024-03-23T16:28:32;20.70;51.50
7666;DHT22;3875;46.562;4.898;2024-03-23T16:31:03;21.40;50.00
7666;DHT22;3875;46.562;4.898;2024-03-23T16:33:30;21.80;49.80
7666;DHT22;3875;46.562;4.898;2024-03-23T16:36:00;21.30;47.40
7666;DHT22;3875;46.562;4.898;2024-03-23T16:38:26;19.30;49.50
7666;DHT22;3875;46.562;4.898;2024-03-23T16:41:04;17.50;53.10
7666;DHT22;3875;46.562;4.898;2024-03-23T16:43:34;16.00;55.20
7666;DHT22;3875;46.562;4.898;2024-03-23T16:46:04;14.90;56.20
7666;DHT22;3875;46.562;4.898;2024-03-23T16:48:31;14.10;58.50
7666;DHT22;3875;46.562;4.898;2024-03-23T16:50:59;13.70;60.10
7666;DHT22;3875;46.562;4.898;2024-03-23T16:53:25;13.40;59.80
7666;DHT22;3875;46.562;4.898;2024-03-23T16:56:00;13.10;61.10
7666;DHT22;3875;46.562;4.898;2024-03-23T16:58:27;13.00;61.30
7666;DHT22;3875;46.562;4.898;2024-03-23T17:00:53;12.90;62.00
7666;DHT22;3875;46.562;4.898;2024-03-23T17:03:22;12.80;62.30